createdAt,value
2022-09-06T00:00:17.952Z,1023.68
2022-09-06T00:10:24.344Z,1023.79
2022-09-06T00:20:29.916Z,1023.70
2022-09-06T00:30:36.218Z,1023.61
2022-09-06T00:40:43.269Z,1023.65
2022-09-06T00:50:50.488Z,1023.59
2022-09-06T01:00:56.798Z,1023.72
2022-09-06T01:11:03.418Z,1023.64
2022-09-06T01:21:09.186Z,1023.52
2022-09-06T01:31:15.036Z,1023.45
2022-09-06T01:41:22.241Z,1023.38
2022-09-06T01:51:31.478Z,1023.43
2022-09-06T02:01:37.364Z,1023.44
2022-09-06T02:11:44.177Z,1023.40
2022-09-06T02:21:50.063Z,1023.38
2022-09-06T02:31:56.045Z,1023.36
2022-09-06T02:42:01.743Z,1023.19
2022-09-06T02:52:07.815Z,1023.34
2022-09-06T03:02:13.655Z,1023.38
2022-09-06T03:12:19.687Z,1023.27
2022-09-06T03:22:25.876Z,1023.18
2022-09-06T03:32:32.335Z,1023.12
2022-09-06T03:42:38.298Z,1023.07
2022-09-06T03:52:44.504Z,1023.08
2022-09-06T04:02:51.151Z,1023.06
2022-09-06T04:12:56.585Z,1023.06
2022-09-06T04:23:03.155Z,1023.05
2022-09-06T04:33:09.721Z,1023.02
2022-09-06T04:43:17.106Z,1022.97
2022-09-06T04:53:23.546Z,1022.92
2022-09-06T05:03:30.355Z,1022.82
2022-09-06T05:13:36.594Z,1022.82
2022-09-06T05:23:43.307Z,1022.70
2022-09-06T05:33:50.038Z,1022.71
2022-09-06T05:43:56.722Z,1022.68
2022-09-06T05:54:03.264Z,1022.74
2022-09-06T06:04:09.998Z,1022.87
2022-09-06T06:14:17.159Z,1022.75
2022-09-06T06:24:23.583Z,1022.58
2022-09-06T06:34:30.464Z,1022.50
2022-09-06T06:44:37.588Z,1022.47
2022-09-06T06:54:44.507Z,1022.58
2022-09-06T07:04:51.879Z,1022.59
2022-09-06T07:14:59.485Z,1022.47
2022-09-06T07:25:06.039Z,1022.52
2022-09-06T07:35:13.207Z,1022.51
2022-09-06T07:45:20.597Z,1022.50
2022-09-06T07:55:27.993Z,1022.40
2022-09-06T08:27:43.751Z,1022.39
2022-09-06T08:37:48.334Z,1022.36
2022-09-06T08:47:54.914Z,1022.35
2022-09-06T08:58:02.167Z,1022.28
2022-09-06T09:08:09.265Z,1022.23
2022-09-06T09:18:16.388Z,1022.16
2022-09-06T09:28:22.927Z,1022.13
2022-09-06T09:38:29.604Z,1021.94
2022-09-06T09:48:37.069Z,1021.77
2022-09-06T09:58:44.077Z,1021.66
2022-09-06T10:08:50.922Z,1021.63
2022-09-06T10:18:57.575Z,1021.54
2022-09-06T10:29:05.190Z,1021.54
2022-09-06T10:39:12.078Z,1021.45
2022-09-06T10:49:19.295Z,1021.40
2022-09-06T11:09:38.449Z,1021.21
2022-09-06T11:19:45.111Z,1021.15
2022-09-06T11:29:52.127Z,1021.11
2022-09-06T11:50:11.143Z,1020.90
2022-09-06T12:00:18.005Z,1020.88
2022-09-06T12:10:24.665Z,1020.78
2022-09-06T12:20:31.373Z,1020.64
2022-09-06T12:30:38.472Z,1020.63
2022-09-06T12:40:45.208Z,1020.58
2022-09-06T12:50:52.004Z,1020.51
2022-09-06T13:00:59.021Z,1020.38
2022-09-06T13:11:05.768Z,1020.24
2022-09-06T13:21:12.669Z,1020.19
2022-09-06T13:31:19.933Z,1020.05
2022-09-06T13:41:26.742Z,1019.96
2022-09-06T13:51:33.570Z,1019.87
2022-09-06T14:01:41.296Z,1019.88
2022-09-06T14:11:48.923Z,1019.84
2022-09-06T14:21:55.177Z,1019.83
2022-09-06T14:32:01.510Z,1019.83
2022-09-06T14:42:08.163Z,1019.87
2022-09-06T14:52:16.136Z,1019.75
2022-09-06T15:02:23.386Z,1019.67
2022-09-06T15:12:29.994Z,1019.65
2022-09-06T15:22:36.375Z,1019.60
2022-09-06T15:32:42.255Z,1019.59
2022-09-06T15:42:48.387Z,1019.47
2022-09-06T15:52:55.194Z,1019.56
2022-09-06T16:03:01.130Z,1019.49
2022-09-06T16:13:07.509Z,1019.32
2022-09-06T16:32:31.797Z,1019.20
2022-09-06T16:50:33.844Z,1019.23
2022-09-06T17:02:03.009Z,1019.16
2022-09-06T17:30:41.890Z,1019.07
2022-09-06T17:56:38.675Z,1019.23
2022-09-06T18:13:28.648Z,1019.28
2022-09-06T18:23:34.623Z,1019.29
2022-09-06T18:36:31.777Z,1019.35
2022-09-06T18:46:38.197Z,1019.39
2022-09-06T18:56:45.432Z,1019.35
2022-09-06T19:06:53.207Z,1019.41
2022-09-06T19:17:01.027Z,1019.45
2022-09-06T19:27:08.365Z,1019.34
2022-09-06T19:37:15.378Z,1019.32
2022-09-06T19:47:22.528Z,1019.28
2022-09-06T19:57:30.046Z,1019.18
2022-09-06T20:07:37.238Z,1019.09
2022-09-06T20:17:44.279Z,1019.17
2022-09-06T20:27:53.560Z,1019.08
2022-09-06T20:39:20.479Z,1018.94
2022-09-06T20:54:44.040Z,1018.89
2022-09-06T21:08:47.590Z,1018.70
2022-09-06T21:18:52.970Z,1018.70
2022-09-06T22:19:11.030Z,1018.29
2022-09-06T22:49:15.133Z,1018.01
2022-09-06T23:08:42.406Z,1017.95
